Time;durP1;ratioP1;P1;durP2;ratioP2;P2;SDS_P1;SDS_P2;PMS_P1;PMS_P2;Temp;Humidity;BMP_temperature;BMP_pressure;BME280_temperature;BME280_humidity;BME280_pressure;Samples;Min_cycle;Max_cycle;Signal;HPM_P1;HPM_P2
2023/12/02 00:02:30;;;;;;;58.70;9.38;;;15.10;99.90;;;;;;5085688;28;20044;-79
2023/12/02 00:04:57;;;;;;;59.47;7.95;;;15.20;99.90;;;;;;5064960;28;20400;-81
2023/12/02 00:07:31;;;;;;;61.33;7.28;;;15.10;99.90;;;;;;5072799;28;20512;-79
2023/12/02 00:10:07;;;;;;;47.67;7.07;;;15.20;99.90;;;;;;5077446;28;20032;-79
2023/12/02 00:12:33;;;;;;;49.20;7.63;;;15.20;99.90;;;;;;5079708;28;20056;-75
2023/12/02 00:14:59;;;;;;;57.53;8.73;;;15.20;99.90;;;;;;5080470;28;20048;-78
2023/12/02 00:17:25;;;;;;;66.43;8.10;;;15.20;99.90;;;;;;5077465;28;20526;-81
2023/12/02 00:19:51;;;;;;;51.38;8.20;;;15.20;99.90;;;;;;5070911;28;20068;-79
2023/12/02 00:22:20;;;;;;;63.97;8.65;;;15.30;99.90;;;;;;5097009;28;20062;-79
2023/12/02 00:24:46;;;;;;;57.75;8.02;;;15.30;99.90;;;;;;5096694;28;20158;-80
2023/12/02 00:27:16;;;;;;;49.78;7.88;;;15.30;99.90;;;;;;5096382;28;20515;-80
2023/12/02 00:29:43;;;;;;;62.03;8.45;;;15.30;99.90;;;;;;5097376;28;20036;-81
2023/12/02 00:32:09;;;;;;;55.47;8.32;;;15.30;99.90;;;;;;5079009;28;20044;-80
2023/12/02 00:34:35;;;;;;;49.85;7.32;;;15.30;99.90;;;;;;5097187;28;20024;-80
2023/12/02 00:37:01;;;;;;;49.65;7.18;;;15.30;99.90;;;;;;5097622;28;20078;-80
2023/12/02 00:39:34;;;;;;;58.50;7.80;;;15.40;99.90;;;;;;5096783;28;20036;-80
2023/12/02 00:42:00;;;;;;;58.35;7.07;;;15.40;99.90;;;;;;5096530;28;20036;-80
2023/12/02 00:44:26;;;;;;;54.40;7.72;;;15.40;99.90;;;;;;5097063;28;20024;-79
2023/12/02 00:46:51;;;;;;;53.53;7.65;;;15.40;99.90;;;;;;5097162;28;20114;-78
2023/12/02 00:49:20;;;;;;;49.47;8.32;;;15.40;99.90;;;;;;5095640;28;20059;-78
2023/12/02 00:51:46;;;;;;;63.63;7.82;;;15.40;99.90;;;;;;5098395;28;20052;-78
2023/12/02 00:54:12;;;;;;;55.97;8.32;;;15.40;99.90;;;;;;5097465;28;20032;-78
2023/12/02 00:56:38;;;;;;;51.90;7.97;;;15.40;99.90;;;;;;5098624;28;20480;-78
2023/12/02 00:59:07;;;;;;;48.95;7.05;;;15.40;99.90;;;;;;5097886;28;20115;-79
2023/12/02 01:01:51;;;;;;;67.00;9.68;;;15.40;99.90;;;;;;5077028;28;20032;-80
2023/12/02 01:04:24;;;;;;;40.63;6.32;;;15.40;99.90;;;;;;5096640;28;20047;-80
2023/12/02 01:06:56;;;;;;;47.08;6.82;;;15.50;99.90;;;;;;5096091;28;20505;-79
2023/12/02 01:09:25;;;;;;;44.00;7.30;;;15.50;99.90;;;;;;5077431;28;20032;-80
2023/12/02 01:11:51;;;;;;;51.75;7.80;;;15.40;99.90;;;;;;5096693;28;20365;-79
2023/12/02 01:14:17;;;;;;;58.35;10.32;;;15.50;99.90;;;;;;5094605;28;20048;-80
2023/12/02 01:16:43;;;;;;;48.10;6.90;;;15.50;99.90;;;;;;5093777;28;20032;-80
2023/12/02 01:19:10;;;;;;;54.70;8.20;;;15.50;99.90;;;;;;5095300;28;20395;-78
2023/12/02 01:21:35;;;;;;;54.08;8.23;;;15.50;99.90;;;;;;5094707;28;20035;-79
2023/12/02 01:24:01;;;;;;;45.67;6.90;;;15.50;99.90;;;;;;5096436;28;20031;-78
2023/12/02 01:26:27;;;;;;;53.30;6.20;;;15.50;99.90;;;;;;5094619;28;20046;-80
2023/12/02 01:28:53;;;;;;;52.13;6.82;;;15.50;99.90;;;;;;5095040;28;20040;-78
2023/12/02 01:31:19;;;;;;;55.05;7.82;;;15.50;99.90;;;;;;5096309;28;20040;-81
2023/12/02 01:33:45;;;;;;;51.70;7.60;;;15.50;99.90;;;;;;5097564;28;20060;-81
2023/12/02 01:36:14;;;;;;;54.22;7.85;;;15.50;99.90;;;;;;5108506;28;20044;-79
2023/12/02 01:38:40;;;;;;;56.17;8.23;;;15.60;99.90;;;;;;5094447;28;20028;-80
2023/12/02 01:41:09;;;;;;;51.20;6.95;;;15.60;99.90;;;;;;5111958;28;20086;-79
2023/12/02 01:47:26;;;;;;;54.90;8.07;;;15.60;99.90;;;;;;5081767;28;20043;-81
2023/12/02 01:51:11;;;;;;;47.03;7.43;;;15.60;99.90;;;;;;5094788;28;20427;-81
2023/12/02 01:53:39;;;;;;;54.45;8.40;;;15.60;99.90;;;;;;5091642;28;20051;-75
2023/12/02 01:56:52;;;;;;;52.53;8.20;;;15.60;99.90;;;;;;5098612;28;20043;-80
2023/12/02 01:59:19;;;;;;;58.25;7.63;;;15.60;99.90;;;;;;5093494;28;20032;-78
2023/12/02 02:01:45;;;;;;;63.85;9.75;;;15.60;99.90;;;;;;5075257;28;20069;-78
2023/12/02 02:04:11;;;;;;;57.55;7.65;;;15.60;99.90;;;;;;5075666;28;20024;-80
2023/12/02 02:06:46;;;;;;;44.33;7.30;;;15.60;99.90;;;;;;5096194;28;20047;-78
2023/12/02 02:09:12;;;;;;;55.65;8.88;;;15.60;99.90;;;;;;5077714;28;20032;-79
2023/12/02 02:11:42;;;;;;;51.15;7.85;;;15.60;99.90;;;;;;5095430;28;20047;-79
2023/12/02 02:14:08;;;;;;;59.95;8.90;;;15.60;99.90;;;;;;5077972;28;20028;-80
2023/12/02 02:16:34;;;;;;;50.83;7.68;;;15.60;99.90;;;;;;5095262;28;20034;-79
2023/12/02 02:19:11;;;;;;;52.90;8.15;;;15.60;99.90;;;;;;5097346;28;20552;-78
2023/12/02 02:21:37;;;;;;;62.72;8.57;;;15.60;99.90;;;;;;5097269;28;20047;-81
2023/12/02 02:24:03;;;;;;;49.90;7.40;;;15.60;99.90;;;;;;5097962;28;20040;-79
2023/12/02 02:26:29;;;;;;;48.55;7.90;;;15.60;99.90;;;;;;5097546;28;20036;-79
2023/12/02 02:28:55;;;;;;;45.25;7.50;;;15.70;99.90;;;;;;5097340;28;20027;-79
2023/12/02 02:31:20;;;;;;;49.95;7.25;;;15.70;99.90;;;;;;5096997;28;20031;-80
2023/12/02 02:34:18;;;;;;;49.65;8.32;;;15.70;99.90;;;;;;5095680;28;20032;-81
2023/12/02 02:36:44;;;;;;;57.13;8.88;;;15.60;99.90;;;;;;5095961;28;20542;-80
2023/12/02 02:39:10;;;;;;;62.08;7.65;;;15.70;99.90;;;;;;5081759;28;20035;-78
2023/12/02 02:41:36;;;;;;;47.20;8.10;;;15.70;99.90;;;;;;5097059;28;20031;-80
2023/12/02 02:44:19;;;;;;;71.60;9.18;;;15.70;99.90;;;;;;5095676;28;20028;-77
2023/12/02 02:46:44;;;;;;;63.38;9.18;;;15.70;99.90;;;;;;5095715;28;20040;-77
2023/12/02 02:49:14;;;;;;;51.15;7.53;;;15.70;99.90;;;;;;5094395;28;20517;-78
2023/12/02 02:51:42;;;;;;;62.05;8.73;;;15.70;99.90;;;;;;5093753;28;20501;-80
2023/12/02 02:54:11;;;;;;;61.42;8.55;;;15.70;99.90;;;;;;5093203;28;20399;-79
2023/12/02 02:56:37;;;;;;;51.65;7.70;;;15.70;99.90;;;;;;5075864;28;20115;-76
2023/12/02 02:59:03;;;;;;;60.22;8.73;;;15.70;99.90;;;;;;5096181;28;20111;-77
2023/12/02 03:01:29;;;;;;;64.15;9.05;;;15.70;99.90;;;;;;5094916;28;20047;-80
2023/12/02 03:03:55;;;;;;;62.33;9.00;;;15.70;99.90;;;;;;5094617;28;20062;-80
2023/12/02 03:06:21;;;;;;;65.22;9.50;;;15.60;99.90;;;;;;5093808;28;20048;-79
2023/12/02 03:08:47;;;;;;;45.60;6.88;;;15.60;99.90;;;;;;5093811;28;20437;-79
2023/12/02 03:11:13;;;;;;;54.90;9.02;;;15.60;99.90;;;;;;5093667;28;20039;-79
2023/12/02 03:13:39;;;;;;;64.50;9.30;;;15.60;99.90;;;;;;5097843;28;20034;-79
2023/12/02 03:16:05;;;;;;;52.58;7.82;;;15.60;99.90;;;;;;5093591;28;20036;-78
2023/12/02 03:18:37;;;;;;;65.43;9.13;;;15.60;99.90;;;;;;5075357;28;20396;-79
2023/12/02 03:21:02;;;;;;;56.20;8.90;;;15.50;99.90;;;;;;5094058;28;20028;-80
2023/12/02 03:23:29;;;;;;;58.72;10.27;;;15.50;99.90;;;;;;5075775;28;20185;-77
2023/12/02 03:25:55;;;;;;;55.65;8.57;;;15.50;99.90;;;;;;5094300;28;20052;-79
2023/12/02 03:28:22;;;;;;;62.42;8.90;;;15.40;99.90;;;;;;5094263;28;20476;-79
2023/12/02 03:30:50;;;;;;;58.17;8.35;;;15.40;99.90;;;;;;5094532;28;20434;-80
2023/12/02 03:33:16;;;;;;;68.85;9.38;;;15.40;99.90;;;;;;5093556;28;20035;-79
2023/12/02 03:35:42;;;;;;;68.72;10.10;;;15.40;99.90;;;;;;5093670;28;20036;-77
2023/12/02 03:38:08;;;;;;;64.93;8.85;;;15.40;99.90;;;;;;5093190;28;20059;-77
2023/12/02 03:40:36;;;;;;;78.30;9.60;;;15.40;99.90;;;;;;5093368;28;20035;-77
2023/12/02 03:43:09;;;;;;;58.70;10.20;;;15.30;99.90;;;;;;5075379;28;20464;-78
2023/12/02 03:45:41;;;;;;;68.50;10.40;;;15.30;99.90;;;;;;5096697;28;20035;-74
2023/12/02 03:48:09;;;;;;;72.70;11.00;;;15.30;99.90;;;;;;5096810;28;20050;-77
2023/12/02 03:50:35;;;;;;;72.78;9.38;;;15.30;99.90;;;;;;5096362;28;20085;-76
2023/12/02 03:53:10;;;;;;;63.97;9.13;;;15.30;99.90;;;;;;5097017;28;20029;-76
2023/12/02 03:55:36;;;;;;;58.95;8.68;;;15.30;99.90;;;;;;5096548;28;20070;-77
2023/12/02 03:58:05;;;;;;;66.65;9.32;;;15.20;99.90;;;;;;5096208;28;20500;-74
2023/12/02 04:00:31;;;;;;;60.47;9.40;;;15.20;99.90;;;;;;5096408;28;20039;-78
2023/12/02 04:03:06;;;;;;;60.83;8.55;;;15.20;99.90;;;;;;5096161;28;20036;-80
2023/12/02 04:05:33;;;;;;;60.13;8.77;;;15.20;99.90;;;;;;5097009;28;20383;-80
2023/12/02 04:08:28;;;;;;;61.15;10.82;;;15.20;99.90;;;;;;5096435;28;20404;-80
2023/12/02 04:11:27;;;;;;;65.82;9.85;;;15.20;99.90;;;;;;5096012;28;20383;-79
2023/12/02 04:13:51;;;;;;;70.82;9.52;;;15.20;99.90;;;;;;5091205;28;20043;-78
2023/12/02 04:16:23;;;;;;;80.60;9.45;;;15.20;99.90;;;;;;5096088;28;20052;-79
2023/12/02 04:18:58;;;;;;;56.42;8.70;;;15.20;99.90;;;;;;5095919;28;20459;-79
2023/12/02 04:21:46;;;;;;;68.30;9.20;;;15.10;99.90;;;;;;5083755;28;20397;-79
2023/12/02 04:24:44;;;;;;;67.45;9.77;;;15.20;99.90;;;;;;5055425;28;20068;-79
2023/12/02 04:27:10;;;;;;;64.15;9.20;;;15.10;99.90;;;;;;5055232;28;20044;-78
2023/12/02 04:29:36;;;;;;;52.90;8.10;;;15.10;99.90;;;;;;5055653;28;20104;-79
2023/12/02 04:32:09;;;;;;;51.67;7.72;;;15.20;99.90;;;;;;5056516;28;20037;-78
2023/12/02 04:34:35;;;;;;;;;;;15.10;99.90;;;;;;5057202;28;20037;-78
2023/12/02 04:37:01;;;;;;;66.55;8.77;;;15.20;99.90;;;;;;5056474;28;20383;-77
2023/12/02 04:39:30;;;;;;;63.13;9.07;;;15.20;99.90;;;;;;5084691;28;20108;-77
2023/12/02 04:41:56;;;;;;;67.30;8.68;;;15.20;99.90;;;;;;5097412;28;20116;-79
2023/12/02 04:44:22;;;;;;;62.13;8.98;;;15.20;99.90;;;;;;5078154;28;20099;-78
2023/12/02 04:46:48;;;;;;;61.08;8.77;;;15.20;99.90;;;;;;5096517;28;20048;-79
2023/12/02 04:49:14;;;;;;;60.10;7.70;;;15.20;99.90;;;;;;5096196;28;20071;-80
2023/12/02 04:51:40;;;;;;;52.65;7.68;;;15.10;99.90;;;;;;5096205;28;20047;-80
2023/12/02 04:54:05;;;;;;;70.60;8.63;;;15.10;99.90;;;;;;5097571;28;20032;-80
2023/12/02 04:56:31;;;;;;;73.20;10.02;;;15.10;99.90;;;;;;5096073;28;20047;-80
2023/12/02 04:58:57;;;;;;;57.95;8.57;;;15.10;99.90;;;;;;5096239;28;20032;-80
2023/12/02 05:01:23;;;;;;;49.72;7.88;;;15.10;99.90;;;;;;5096108;28;20036;-80
2023/12/02 05:03:49;;;;;;;64.85;10.32;;;15.00;99.90;;;;;;5096795;28;20032;-80
2023/12/02 05:06:16;;;;;;;55.22;9.13;;;15.00;99.90;;;;;;5096099;28;20039;-80
2023/12/02 05:08:44;;;;;;;54.47;8.90;;;15.00;99.90;;;;;;5097062;28;20032;-80
2023/12/02 05:11:20;;;;;;;56.40;8.85;;;15.00;99.90;;;;;;5096974;28;20039;-79
2023/12/02 05:13:50;;;;;;;47.67;7.28;;;15.00;99.90;;;;;;5077524;28;20047;-79
2023/12/02 05:16:16;;;;;;;65.03;7.85;;;15.00;99.90;;;;;;5095144;28;20123;-78
2023/12/02 05:18:42;;;;;;;49.55;7.05;;;15.00;99.90;;;;;;5095500;28;20425;-77
2023/12/02 05:21:15;;;;;;;51.40;8.30;;;15.00;99.90;;;;;;5095194;28;20046;-77
2023/12/02 05:23:50;;;;;;;42.95;7.88;;;15.00;99.90;;;;;;5094864;28;20703;-77
2023/12/02 05:26:31;;;;;;;57.38;7.72;;;15.00;99.90;;;;;;5094448;28;20451;-77
2023/12/02 05:29:20;;;;;;;46.10;6.75;;;15.00;99.90;;;;;;5094958;28;20426;-77
2023/12/02 05:31:49;;;;;;;65.82;8.35;;;15.00;99.90;;;;;;5088984;28;20111;-79
2023/12/02 05:34:41;;;;;;;50.15;8.23;;;15.00;99.90;;;;;;5074908;28;20082;-73
2023/12/02 05:37:16;;;;;;;64.10;9.57;;;15.00;99.90;;;;;;5068932;28;20043;-77
2023/12/02 05:39:48;;;;;;;54.20;8.90;;;15.00;99.90;;;;;;5077030;28;20377;-77
2023/12/02 05:42:17;;;;;;;59.33;7.90;;;15.00;99.90;;;;;;5085890;28;20032;-77
2023/12/02 05:44:43;;;;;;;59.30;7.28;;;14.90;99.90;;;;;;5089791;28;20036;-79
2023/12/02 05:50:58;;;;;;;49.97;8.48;;;14.90;99.90;;;;;;5031461;28;20104;-78
2023/12/02 05:53:50;;;;;;;62.20;7.63;;;14.90;99.90;;;;;;5031605;28;20416;-79
2023/12/02 05:56:27;;;;;;;54.80;7.13;;;14.90;99.90;;;;;;5090692;28;20043;-79
2023/12/02 05:58:56;;;;;;;36.13;7.47;;;14.90;99.90;;;;;;5093845;28;20491;-79
2023/12/02 06:01:22;;;;;;;53.72;6.97;;;14.90;99.90;;;;;;5087122;28;20112;-79
2023/12/02 06:04:16;;;;;;;;;;;;;;;;;;;;;
2023/12/02 06:06:45;;;;;;;46.17;7.28;;;15.00;99.90;;;;;;5093149;28;20029;-79
2023/12/02 06:09:11;;;;;;;53.53;7.00;;;14.90;99.90;;;;;;5094740;28;20060;-79
2023/12/02 06:11:37;;;;;;;60.80;8.25;;;14.90;99.90;;;;;;5095124;28;20066;-80
2023/12/02 06:14:06;;;;;;;53.20;6.50;;;14.90;99.90;;;;;;5077924;28;20138;-79
2023/12/02 06:16:32;;;;;;;42.97;7.95;;;14.90;99.90;;;;;;5116052;28;20035;-81
2023/12/02 06:19:03;;;;;;;62.25;9.45;;;15.00;99.90;;;;;;5114314;28;20024;-81
2023/12/02 06:21:29;;;;;;;44.53;6.47;;;15.00;99.90;;;;;;5114088;28;20032;-79
2023/12/02 06:23:55;;;;;;;43.22;8.57;;;15.00;99.90;;;;;;5113755;28;20039;-79
2023/12/02 06:26:22;;;;;;;45.35;7.97;;;15.00;99.90;;;;;;5113886;28;20051;-81
2023/12/02 06:28:49;;;;;;;45.92;7.05;;;15.00;99.90;;;;;;5119211;28;20039;-78
2023/12/02 06:31:17;;;;;;;57.72;7.05;;;15.00;99.90;;;;;;5115905;28;20400;-76
2023/12/02 06:33:43;;;;;;;57.28;7.65;;;15.00;99.90;;;;;;5129079;28;20036;-79
2023/12/02 06:36:09;;;;;;;50.35;7.07;;;15.00;99.90;;;;;;5118122;28;20399;-80
2023/12/02 06:38:38;;;;;;;45.92;6.22;;;15.00;99.90;;;;;;5105833;28;20054;-78
2023/12/02 06:41:05;;;;;;;50.55;6.65;;;15.00;99.90;;;;;;5124906;28;20035;-81
2023/12/02 06:43:31;;;;;;;54.00;7.85;;;15.10;99.90;;;;;;5123058;28;20048;-78
2023/12/02 06:45:57;;;;;;;46.10;7.45;;;15.00;99.90;;;;;;5122835;28;20047;-77
2023/12/02 06:48:23;;;;;;;64.38;9.10;;;15.10;99.90;;;;;;5123416;28;20040;-79
2023/12/02 06:50:55;;;;;;;65.28;7.45;;;15.00;99.90;;;;;;5123875;28;20038;-80
2023/12/02 06:53:21;;;;;;;47.45;7.65;;;15.10;99.90;;;;;;5122536;28;20036;-81
2023/12/02 06:55:50;;;;;;;50.63;6.93;;;15.00;99.90;;;;;;5117451;28;20039;-79
2023/12/02 06:58:17;;;;;;;50.15;7.15;;;15.00;99.90;;;;;;5116100;28;20387;-77
2023/12/02 07:00:43;;;;;;;46.92;6.38;;;15.00;99.90;;;;;;5096640;28;20035;-76
2023/12/02 07:03:08;;;;;;;49.80;7.70;;;14.90;99.90;;;;;;5111479;28;20059;-79
2023/12/02 07:05:45;;;;;;;54.50;8.25;;;14.90;99.90;;;;;;5113757;28;20035;-79
2023/12/02 07:08:13;;;;;;;49.75;9.05;;;14.90;99.90;;;;;;5095656;28;20058;-79
2023/12/02 07:10:42;;;;;;;47.10;7.57;;;14.80;99.90;;;;;;5110941;28;20032;-79
2023/12/02 07:13:17;;;;;;;40.05;7.50;;;14.80;99.90;;;;;;5093530;28;20177;-76
2023/12/02 07:15:43;;;;;;;50.53;7.68;;;14.80;99.90;;;;;;5093020;28;20056;-77
2023/12/02 07:18:10;;;;;;;41.95;8.05;;;14.70;99.90;;;;;;5093784;28;20095;-79
2023/12/02 07:20:36;;;;;;;57.60;8.05;;;14.60;99.90;;;;;;5097524;28;20028;-78
2023/12/02 07:23:29;;;;;;;45.17;8.50;;;14.60;99.90;;;;;;5097270;28;20036;-76
2023/12/02 07:25:59;;;;;;;48.15;8.02;;;14.60;99.90;;;;;;5096415;28;20515;-79
2023/12/02 07:28:28;;;;;;;57.65;7.93;;;14.60;99.90;;;;;;5098811;28;20392;-82
2023/12/02 07:30:55;;;;;;;44.08;7.35;;;14.60;99.90;;;;;;5106389;28;20032;-83
2023/12/02 07:33:23;;;;;;;52.00;8.75;;;14.60;99.90;;;;;;5102308;28;20039;-85
2023/12/02 07:35:49;;;;;;;52.38;7.60;;;14.60;99.90;;;;;;5111149;28;20024;-82
2023/12/02 07:38:23;;;;;;;42.13;6.72;;;14.60;99.90;;;;;;5122702;28;20031;-78
2023/12/02 07:40:50;;;;;;;50.85;8.50;;;14.60;99.90;;;;;;5117563;28;20053;-79
2023/12/02 07:43:21;;;;;;;40.60;5.97;;;14.60;99.90;;;;;;5118164;28;20672;-80
2023/12/02 07:49:13;;;;;;;41.35;5.57;;;14.50;99.90;;;;;;5033782;28;20034;-77
2023/12/02 07:52:02;;;;;;;37.45;5.15;;;14.50;99.90;;;;;;5075304;28;20407;-78
2023/12/02 07:54:29;;;;;;;25.27;3.40;;;14.50;99.90;;;;;;5066805;28;20487;-79
2023/12/02 07:56:54;;;;;;;35.53;4.53;;;14.40;99.90;;;;;;5075685;28;20412;-78
2023/12/02 07:59:21;;;;;;;42.38;5.63;;;14.40;99.90;;;;;;5075819;28;20033;-77
2023/12/02 08:01:47;;;;;;;35.78;5.57;;;14.40;99.90;;;;;;5107151;28;20038;-78
2023/12/02 08:04:12;;;;;;;24.13;3.65;;;14.40;99.90;;;;;;5116134;28;20106;-78
2023/12/02 08:06:39;;;;;;;28.02;4.32;;;14.40;99.90;;;;;;5116114;28;20065;-78
2023/12/02 08:09:05;;;;;;;32.30;4.50;;;14.40;99.90;;;;;;5116114;28;20435;-78
2023/12/02 08:11:31;;;;;;;30.67;5.65;;;14.30;99.90;;;;;;5116149;28;20038;-79
2023/12/02 08:13:57;;;;;;;26.48;3.90;;;14.30;99.90;;;;;;5115886;28;20103;-79
2023/12/02 08:16:22;;;;;;;29.10;3.42;;;14.30;99.90;;;;;;5116185;28;20055;-75
2023/12/02 08:18:48;;;;;;;32.72;4.00;;;14.30;99.90;;;;;;5116124;28;20032;-78
2023/12/02 08:21:14;;;;;;;36.35;4.55;;;14.30;99.90;;;;;;5115848;28;20136;-77
2023/12/02 08:23:40;;;;;;;36.25;6.60;;;14.30;99.90;;;;;;5115987;28;20149;-74
2023/12/02 08:26:06;;;;;;;25.88;3.33;;;14.30;99.90;;;;;;5116289;28;20035;-75
2023/12/02 08:28:32;;;;;;;23.13;3.03;;;14.30;99.90;;;;;;5115996;28;20510;-77
2023/12/02 08:30:58;;;;;;;23.77;3.70;;;14.30;99.90;;;;;;5115933;28;20032;-75
2023/12/02 08:33:24;;;;;;;20.58;3.08;;;14.20;99.90;;;;;;5116316;28;20064;-74
2023/12/02 08:35:50;;;;;;;19.55;3.45;;;14.20;99.90;;;;;;5117461;28;20111;-74
2023/12/02 08:38:16;;;;;;;27.00;3.40;;;14.20;99.90;;;;;;5117091;28;20376;-73
2023/12/02 08:40:45;;;;;;;26.23;4.03;;;14.20;99.90;;;;;;5117208;28;20115;-72
2023/12/02 08:43:26;;;;;;;21.83;3.47;;;14.20;99.90;;;;;;5117038;28;20024;-72
2023/12/02 08:49:33;;;;;;;29.00;3.92;;;14.10;99.90;;;;;;5098186;28;20036;-72
2023/12/02 08:52:31;;;;;;;21.50;3.75;;;14.10;99.90;;;;;;5116219;28;20462;-73
2023/12/02 08:55:10;;;;;;;25.63;3.53;;;14.10;99.90;;;;;;5053699;28;20386;-73
2023/12/02 08:58:05;;;;;;;21.38;2.75;;;14.00;99.90;;;;;;5047426;28;20417;-74
2023/12/02 09:00:41;;;;;;;22.80;3.53;;;14.10;99.90;;;;;;5100894;28;20449;-73
2023/12/02 09:03:27;;;;;;;29.63;3.58;;;14.00;99.90;;;;;;5116397;28;20039;-73
2023/12/02 09:08:57;;;;;;;18.42;3.47;;;14.10;99.90;;;;;;5115755;28;20442;-74
2023/12/02 09:19:18;;;;;;;;;;;;;;;;;;;;;
2023/12/02 09:25:29;;;;;;;18.15;2.78;;;14.00;99.90;;;;;;4954036;29;20039;-76
2023/12/02 09:31:38;;;;;;;26.30;3.42;;;14.00;99.90;;;;;;4897718;29;20047;-76
2023/12/02 09:34:24;;;;;;;20.58;2.92;;;13.90;99.90;;;;;;4933441;29;20074;-77
2023/12/02 09:36:50;;;;;;;17.33;2.55;;;13.90;99.90;;;;;;5032406;28;20376;-76
2023/12/02 09:39:16;;;;;;;18.10;2.80;;;13.90;99.90;;;;;;5094572;28;20036;-77
2023/12/02 09:41:47;;;;;;;10.68;2.22;;;13.90;99.90;;;;;;5094049;28;20036;-73
2023/12/02 09:44:24;;;;;;;23.48;3.17;;;13.90;99.90;;;;;;5094467;28;20115;-77
2023/12/02 09:47:10;;;;;;;19.38;2.67;;;13.80;99.90;;;;;;5094552;28;20040;-74
2023/12/02 09:49:49;;;;;;;27.25;3.90;;;13.90;99.90;;;;;;5094107;28;20381;-76
2023/12/02 09:52:42;;;;;;;18.20;2.20;;;13.90;99.90;;;;;;5094188;28;20434;-73
2023/12/02 09:55:26;;;;;;;21.60;2.80;;;13.90;99.90;;;;;;5094514;28;20379;-76
2023/12/02 09:58:10;;;;;;;14.57;3.17;;;13.90;99.90;;;;;;5093962;28;20032;-77
2023/12/02 10:00:52;;;;;;;20.60;3.42;;;13.90;99.90;;;;;;5093969;28;20105;-77
2023/12/02 10:03:46;;;;;;;18.45;2.50;;;13.90;99.90;;;;;;5094180;28;20524;-77
2023/12/02 10:06:27;;;;;;;14.25;2.47;;;13.90;99.90;;;;;;5093779;28;20515;-76
2023/12/02 10:09:14;;;;;;;18.58;3.42;;;13.90;99.90;;;;;;5093761;28;20024;-77
2023/12/02 10:12:05;;;;;;;21.67;2.65;;;13.90;99.90;;;;;;5094103;28;20036;-74
2023/12/02 10:14:33;;;;;;;16.75;2.30;;;13.90;99.90;;;;;;5080031;22;20059;-75
2023/12/02 10:17:03;;;;;;;13.02;2.47;;;13.90;99.90;;;;;;5056413;28;20400;-75
2023/12/02 10:19:51;;;;;;;18.33;2.33;;;13.80;99.90;;;;;;5053996;28;20447;-75
2023/12/02 10:22:19;;;;;;;21.13;2.95;;;13.80;99.90;;;;;;5053962;28;20389;-75
2023/12/02 10:24:54;;;;;;;19.70;2.92;;;13.80;99.90;;;;;;5036077;28;20471;-75
2023/12/02 10:27:20;;;;;;;22.98;2.80;;;13.80;99.90;;;;;;5035972;28;20048;-75
2023/12/02 10:30:11;;;;;;;24.17;3.65;;;13.80;99.90;;;;;;5053984;28;20143;-75
2023/12/02 10:32:40;;;;;;;17.85;3.00;;;13.80;99.90;;;;;;5053497;28;20040;-75
2023/12/02 10:35:18;;;;;;;14.40;2.17;;;13.80;99.90;;;;;;5053234;28;20397;-75
2023/12/02 10:37:48;;;;;;;20.58;2.85;;;13.80;99.90;;;;;;5033472;28;20436;-75
2023/12/02 10:40:22;;;;;;;25.33;3.20;;;13.90;99.90;;;;;;5032677;28;20037;-75
2023/12/02 10:43:07;;;;;;;22.40;3.53;;;13.80;99.90;;;;;;5032632;28;20037;-75
2023/12/02 10:45:36;;;;;;;24.13;3.10;;;13.80;99.90;;;;;;5030788;28;20048;-75
2023/12/02 10:48:03;;;;;;;22.83;3.50;;;13.90;99.90;;;;;;5032915;28;20068;-74
2023/12/02 10:50:29;;;;;;;16.75;3.40;;;13.90;99.90;;;;;;5033124;28;20484;-75
2023/12/02 10:53:03;;;;;;;27.52;3.42;;;13.90;99.90;;;;;;5032186;28;20033;-75
2023/12/02 10:55:35;;;;;;;23.67;3.15;;;13.90;99.90;;;;;;5032930;28;20120;-74
2023/12/02 10:58:04;;;;;;;21.50;3.30;;;13.90;99.90;;;;;;5033095;28;20088;-75
2023/12/02 11:00:34;;;;;;;16.33;3.17;;;13.90;99.90;;;;;;5033245;28;20028;-75
2023/12/02 11:03:06;;;;;;;16.10;2.80;;;13.90;99.90;;;;;;5015167;28;20390;-75
2023/12/02 11:05:48;;;;;;;22.20;3.08;;;13.90;99.90;;;;;;5032393;28;20386;-75
2023/12/02 11:08:19;;;;;;;18.83;2.55;;;13.90;99.90;;;;;;5032579;28;20068;-75
2023/12/02 11:10:51;;;;;;;22.13;3.15;;;13.90;99.90;;;;;;5032695;28;20477;-75
2023/12/02 11:13:23;;;;;;;17.75;3.47;;;13.80;99.90;;;;;;5036741;28;20580;-74
2023/12/02 11:15:52;;;;;;;25.88;3.80;;;13.80;99.90;;;;;;5052573;28;20485;-75
2023/12/02 11:18:28;;;;;;;17.75;3.03;;;13.80;99.90;;;;;;5051296;28;20132;-75
2023/12/02 11:21:03;;;;;;;18.58;2.53;;;13.90;99.90;;;;;;5072739;28;20477;-75
2023/12/02 11:24:14;;;;;;;21.30;2.80;;;13.90;99.90;;;;;;5072566;28;20049;-75
2023/12/02 11:26:46;;;;;;;23.08;4.00;;;13.80;99.90;;;;;;5054573;28;20519;-75
2023/12/02 11:29:21;;;;;;;20.95;2.60;;;13.80;99.90;;;;;;5072641;28;20366;-75
2023/12/02 11:32:08;;;;;;;17.48;2.72;;;13.80;99.90;;;;;;5072547;28;20025;-74
2023/12/02 11:35:07;;;;;;;14.98;3.10;;;13.80;99.90;;;;;;5071678;28;20052;-75
2023/12/02 11:37:42;;;;;;;16.27;3.00;;;13.80;99.90;;;;;;5072121;28;20032;-74
2023/12/02 11:40:23;;;;;;;18.85;2.30;;;13.80;99.90;;;;;;5072059;28;20047;-74
2023/12/02 11:43:13;;;;;;;20.92;3.58;;;13.80;99.90;;;;;;5072517;28;20079;-75
2023/12/02 11:45:42;;;;;;;19.42;3.70;;;13.80;99.90;;;;;;5071935;28;20044;-75
2023/12/02 11:48:26;;;;;;;24.40;3.03;;;13.70;99.90;;;;;;5072648;28;20056;-75
2023/12/02 11:51:17;;;;;;;10.00;2.20;;;13.70;99.90;;;;;;5072787;28;20410;-75
2023/12/02 11:53:51;;;;;;;19.83;3.03;;;13.70;99.90;;;;;;5072883;28;20390;-75
2023/12/02 11:56:21;;;;;;;14.98;2.70;;;13.60;99.90;;;;;;5072930;28;20238;-75
2023/12/02 11:58:58;;;;;;;18.15;2.88;;;13.60;99.90;;;;;;5072563;28;20435;-75
2023/12/02 12:02:02;;;;;;;20.13;3.35;;;13.60;99.90;;;;;;5072504;28;20112;-74
2023/12/02 12:04:49;;;;;;;14.50;2.95;;;13.70;99.90;;;;;;5073719;28;20438;-75
2023/12/02 12:07:50;;;;;;;15.57;2.10;;;13.70;99.90;;;;;;5076112;28;20571;-75
2023/12/02 12:10:35;;;;;;;11.35;2.05;;;13.80;99.90;;;;;;5053691;28;20369;-75
2023/12/02 12:13:02;;;;;;;11.93;2.17;;;13.80;99.90;;;;;;5076512;28;20052;-75
2023/12/02 12:15:32;;;;;;;9.85;1.50;;;13.80;99.90;;;;;;5093450;28;20734;-75
2023/12/02 12:17:58;;;;;;;10.73;1.85;;;13.80;99.90;;;;;;5093789;28;20364;-75
2023/12/02 12:20:29;;;;;;;12.32;2.10;;;13.90;99.90;;;;;;5095975;28;20028;-75
2023/12/02 12:22:55;;;;;;;12.23;2.20;;;13.90;99.90;;;;;;5095916;28;20028;-76
2023/12/02 12:25:22;;;;;;;11.63;1.98;;;13.80;99.90;;;;;;5096121;28;20036;-74
2023/12/02 12:27:48;;;;;;;12.25;2.05;;;13.80;99.90;;;;;;5095925;28;20377;-75
2023/12/02 12:30:14;;;;;;;12.40;3.05;;;13.80;99.90;;;;;;5095836;28;20032;-75
2023/12/02 12:32:40;;;;;;;12.43;2.28;;;13.80;99.90;;;;;;5095475;28;20039;-75
2023/12/02 12:35:16;;;;;;;11.02;1.48;;;13.80;99.90;;;;;;5095826;28;20020;-76
2023/12/02 12:37:42;;;;;;;17.73;2.75;;;13.80;99.90;;;;;;5076629;28;20028;-75
2023/12/02 12:40:18;;;;;;;13.13;3.20;;;13.80;99.90;;;;;;5092874;28;20032;-75
2023/12/02 12:42:49;;;;;;;10.63;2.47;;;13.80;99.90;;;;;;5092828;28;20395;-76
2023/12/02 12:45:15;;;;;;;12.60;2.45;;;13.80;99.90;;;;;;5094210;28;20502;-75
2023/12/02 12:47:45;;;;;;;10.20;2.28;;;13.80;99.50;;;;;;5095315;28;20055;-75
2023/12/02 12:50:12;;;;;;;16.52;2.00;;;13.80;99.70;;;;;;5095267;28;20066;-75
2023/12/02 12:52:51;;;;;;;12.68;1.98;;;13.80;99.70;;;;;;5095128;28;20032;-75
2023/12/02 12:55:24;;;;;;;7.57;1.92;;;13.80;99.90;;;;;;5095119;28;20060;-76
2023/12/02 12:57:56;;;;;;;;;;;13.80;99.90;;;;;;5095334;28;20487;-75
2023/12/02 13:00:27;;;;;;;15.68;1.98;;;13.80;99.90;;;;;;5094472;28;20433;-75
2023/12/02 13:03:02;;;;;;;13.45;1.67;;;13.80;99.10;;;;;;5094923;28;20541;-75
2023/12/02 13:05:38;;;;;;;12.38;2.95;;;13.80;99.10;;;;;;5094923;28;20476;-75
2023/12/02 13:08:29;;;;;;;12.38;2.38;;;13.80;97.90;;;;;;5076168;28;20044;-75
2023/12/02 13:10:59;;;;;;;9.77;1.50;;;13.80;98.40;;;;;;5094634;28;20024;-75
2023/12/02 13:13:28;;;;;;;12.02;2.20;;;13.90;98.50;;;;;;5094978;28;20056;-75
2023/12/02 13:15:57;;;;;;;8.02;1.48;;;13.90;98.00;;;;;;5093529;28;20527;-76
2023/12/02 13:18:23;;;;;;;11.30;2.13;;;13.90;98.40;;;;;;5076667;28;20063;-76
2023/12/02 13:20:50;;;;;;;10.15;1.60;;;13.90;98.50;;;;;;5095218;28;20038;-76
2023/12/02 13:23:23;;;;;;;11.80;2.03;;;13.90;98.10;;;;;;5077155;28;20036;-76
2023/12/02 13:25:51;;;;;;;10.93;2.30;;;13.90;97.30;;;;;;5095599;28;20040;-76
2023/12/02 13:28:32;;;;;;;7.97;1.98;;;13.90;97.10;;;;;;5090387;28;20400;-75
2023/12/02 13:31:24;;;;;;;13.88;2.50;;;13.90;96.90;;;;;;5074071;28;20029;-76
2023/12/02 13:48:01;;;;;;;;;;;;;;;;;;;;;
2023/12/02 13:50:54;;;;;;;18.80;2.60;;;14.10;97.70;;;;;;5040252;28;20413;-77
2023/12/02 13:53:49;;;;;;;18.42;3.13;;;14.00;97.60;;;;;;5073982;28;20047;-76